Time;durP1;ratioP1;P1;durP2;ratioP2;P2;SDS_P1;SDS_P2;PMS_P1;PMS_P2;Temp;Humidity;BMP_temperature;BMP_pressure;BME280_temperature;BME280_humidity;BME280_pressure;Samples;Min_cycle;Max_cycle;Signal;HPM_P1;HPM_P2
2022/05/29 00:02:03;;;;;;;5.03;1.77;;;7.00;99.90;;;-144.05;71.88;125687.94;4975642;28;20472;-86
2022/05/29 00:04:29;;;;;;;2.35;1.50;;;6.80;99.90;;;-144.05;71.96;125687.94;4976187;28;20027;-86
2022/05/29 00:06:58;;;;;;;4.32;1.70;;;6.90;99.90;;;-144.05;72.43;125687.94;4975639;28;20131;-85
2022/05/29 00:09:39;;;;;;;6.90;2.22;;;6.80;99.90;;;-144.05;72.91;125687.94;4975733;28;20058;-84
2022/05/29 00:12:09;;;;;;;5.13;1.88;;;6.70;99.90;;;-144.05;72.56;125687.94;4991948;28;20372;-84
2022/05/29 00:14:38;;;;;;;5.78;2.00;;;6.70;99.90;;;-144.05;73.07;125687.94;4975980;28;20085;-83
2022/05/29 00:17:05;;;;;;;5.28;1.75;;;6.80;99.90;;;-144.05;73.20;125687.94;4991805;28;20042;-83
2022/05/29 00:19:32;;;;;;;7.78;2.65;;;6.70;99.90;;;-144.05;73.53;125687.94;4976000;28;20058;-84
2022/05/29 00:21:58;;;;;;;3.65;2.00;;;6.60;99.90;;;-144.05;73.50;125687.94;4975109;28;20081;-85
2022/05/29 00:24:24;;;;;;;6.85;2.80;;;6.80;99.90;;;-144.05;73.67;125687.94;4974802;28;20034;-86
2022/05/29 00:26:50;;;;;;;3.72;2.05;;;7.30;99.90;;;-144.05;73.82;125687.94;4975310;28;20054;-84
2022/05/29 00:29:16;;;;;;;8.48;2.17;;;7.00;99.90;;;-144.05;73.75;125687.94;4974548;28;20114;-84
2022/05/29 00:31:42;;;;;;;8.70;2.22;;;6.90;99.90;;;-144.05;73.98;125687.94;4974946;28;20047;-85
2022/05/29 00:36:05;;;;;;;6.95;2.22;;;6.70;99.90;;;-144.05;73.77;125687.94;4975226;28;20131;-84
2022/05/29 00:38:39;;;;;;;6.15;1.85;;;6.70;99.90;;;-144.05;73.62;125687.94;4961130;28;20035;-84
2022/05/29 00:41:21;;;;;;;8.77;2.37;;;6.90;99.90;;;-144.05;73.65;125687.94;4990726;28;20023;-84
2022/05/29 00:44:27;;;;;;;5.40;2.05;;;6.80;99.90;;;-144.05;73.50;125687.94;4974988;28;20050;-84
2022/05/29 00:47:15;;;;;;;7.75;2.30;;;6.90;99.90;;;-144.05;73.69;125687.94;4989857;28;20074;-84
2022/05/29 00:49:45;;;;;;;11.48;2.53;;;7.00;99.90;;;-144.05;73.30;125687.94;4974367;28;20184;-84
2022/05/29 00:52:28;;;;;;;19.80;3.70;;;6.90;99.90;;;-144.05;73.53;125687.94;4975098;28;20023;-84
2022/05/29 00:55:29;;;;;;;7.63;1.83;;;6.90;99.90;;;-144.05;73.70;125687.94;4974568;28;20027;-83
2022/05/29 00:58:05;;;;;;;7.30;1.80;;;6.90;99.90;;;-144.05;73.59;125687.94;4971145;28;20031;-84
2022/05/29 01:00:34;;;;;;;7.00;2.40;;;6.90;99.90;;;-144.05;73.46;125687.94;4974654;28;20027;-84
2022/05/29 01:03:05;;;;;;;12.43;2.30;;;6.90;99.90;;;-144.05;73.67;125687.94;4974549;28;20085;-83
2022/05/29 01:05:35;;;;;;;7.82;2.10;;;6.90;99.90;;;-144.05;73.88;125687.94;4974586;28;20475;-86
2022/05/29 01:08:19;;;;;;;7.20;2.17;;;7.00;99.90;;;-144.05;73.91;125687.94;4990492;28;20032;-84
2022/05/29 01:10:53;;;;;;;7.32;2.10;;;6.80;99.90;;;-144.05;73.97;125687.94;4974841;28;20065;-87
2022/05/29 01:13:50;;;;;;;7.82;2.13;;;6.90;99.90;;;-144.05;73.99;125687.94;4999281;28;20018;-83
2022/05/29 01:16:56;;;;;;;10.25;2.63;;;6.80;99.90;;;-144.05;74.27;125687.94;4996620;28;20031;-85
2022/05/29 01:20:02;;;;;;;5.78;2.33;;;6.70;99.90;;;-144.05;74.44;125687.94;4991718;28;20451;-87
2022/05/29 01:23:08;;;;;;;4.40;1.83;;;6.70;99.90;;;-144.05;74.47;125687.94;4991446;28;20027;-85
2022/05/29 01:26:17;;;;;;;7.15;2.15;;;6.50;99.90;;;-144.05;75.35;125687.94;4991279;28;20066;-85
2022/05/29 01:29:05;;;;;;;4.75;1.88;;;6.50;99.90;;;-144.05;75.46;125687.94;4990349;28;20046;-83
2022/05/29 01:31:52;;;;;;;6.75;2.10;;;6.40;99.90;;;-144.05;75.58;125687.94;4989689;28;20107;-84
2022/05/29 01:34:42;;;;;;;;;;;6.40;99.90;;;-144.05;75.72;125687.94;4974021;28;20023;-84
2022/05/29 01:37:23;;;;;;;9.50;2.80;;;6.40;99.90;;;-144.05;75.99;125687.94;4989959;28;19910;-84
2022/05/29 01:40:24;;;;;;;8.95;2.17;;;6.40;99.90;;;-144.05;76.05;125687.94;4973573;28;20467;-84
2022/05/29 01:43:24;;;;;;;5.25;2.30;;;6.40;99.90;;;-144.05;76.14;125687.94;4973711;28;20126;-87
2022/05/29 01:46:05;;;;;;;5.53;2.42;;;6.40;99.90;;;-144.05;76.54;125687.94;4975088;28;20365;-85
2022/05/29 01:49:16;;;;;;;8.27;2.67;;;6.50;99.90;;;-144.05;77.34;125687.94;4973879;28;20104;-84
2022/05/29 01:52:20;;;;;;;4.75;2.53;;;6.60;99.90;;;-144.05;77.14;125687.94;4967378;28;20050;-87
2022/05/29 01:55:05;;;;;;;5.75;2.35;;;6.80;99.90;;;-144.05;76.69;125687.94;4963294;28;20133;-83
2022/05/29 01:57:48;;;;;;;9.18;2.45;;;6.80;99.90;;;-144.05;76.77;125687.94;4973867;28;20038;-85
2022/05/29 02:00:21;;;;;;;5.85;2.03;;;6.90;99.90;;;-144.05;76.79;125687.94;4973293;28;20089;-84
2022/05/29 02:03:18;;;;;;;8.80;2.35;;;7.00;99.90;;;-144.05;76.57;125687.94;4974314;28;20035;-85
2022/05/29 02:05:55;;;;;;;;;;;7.00;99.90;;;-144.05;76.64;125687.94;4973491;28;20122;-85
2022/05/29 02:08:56;;;;;;;6.72;2.45;;;7.00;99.90;;;-144.05;76.64;125687.94;4989712;28;19914;-84
2022/05/29 02:11:28;;;;;;;9.10;2.47;;;7.00;99.90;;;-144.05;76.54;125687.94;4989361;28;20031;-84
2022/05/29 02:14:18;;;;;;;9.13;2.38;;;6.90;99.90;;;-144.05;76.95;125687.94;4973034;28;20035;-84
2022/05/29 02:16:55;;;;;;;5.70;2.40;;;6.70;99.90;;;-144.05;76.84;125687.94;4973666;28;20030;-82
2022/05/29 02:19:52;;;;;;;11.25;2.92;;;6.80;99.90;;;-144.05;77.13;125687.94;4989387;28;20066;-86
2022/05/29 02:22:29;;;;;;;9.93;2.50;;;6.80;99.90;;;-144.05;77.06;125687.94;4989189;28;20518;-85
2022/05/29 02:25:10;;;;;;;8.15;3.00;;;6.80;99.90;;;-144.05;77.01;125687.94;4988431;28;20035;-86
2022/05/29 02:27:54;;;;;;;8.93;2.35;;;6.90;99.90;;;-144.05;76.97;125687.94;4973050;28;20391;-84
2022/05/29 02:31:01;;;;;;;5.80;2.30;;;6.80;99.90;;;-144.05;77.28;125687.94;4973096;28;20023;-83
2022/05/29 02:34:00;;;;;;;6.65;2.88;;;6.70;99.90;;;-144.05;77.78;125687.94;4960272;28;20042;-85
2022/05/29 02:36:53;;;;;;;7.97;2.72;;;6.70;99.90;;;-144.05;77.91;125687.94;4972888;28;20088;-84
2022/05/29 02:39:51;;;;;;;10.20;2.90;;;6.80;99.90;;;-144.05;77.88;125687.94;4989356;28;20514;-85
2022/05/29 02:42:37;;;;;;;9.73;2.85;;;6.80;99.90;;;-144.05;77.88;125687.94;4972932;28;20039;-84
2022/05/29 02:45:19;;;;;;;10.30;3.00;;;6.70;99.90;;;-144.05;78.19;125687.94;4988682;28;20039;-85
2022/05/29 02:48:23;;;;;;;7.60;2.67;;;6.80;99.90;;;-144.05;77.94;125687.94;4988810;28;20050;-84
2022/05/29 02:51:43;;;;;;;6.82;2.95;;;6.80;99.90;;;-144.05;78.39;125687.94;4973831;28;20086;-83
2022/05/29 02:54:25;;;;;;;10.25;3.50;;;6.70;99.90;;;-144.05;78.25;125687.94;4988918;28;20085;-84
2022/05/29 02:56:58;;;;;;;8.02;3.30;;;6.70;99.90;;;-144.05;78.51;125687.94;4972510;28;20031;-85
2022/05/29 02:59:36;;;;;;;6.22;2.53;;;6.70;99.90;;;-144.05;78.39;125687.94;4972718;28;20522;-85
2022/05/29 03:02:55;;;;;;;8.38;3.20;;;6.70;99.90;;;-144.05;78.79;125687.94;4972701;28;20759;-84
2022/05/29 03:05:54;;;;;;;8.50;3.35;;;6.60;99.90;;;-144.05;78.99;125687.94;4989142;28;20035;-86
2022/05/29 03:09:03;;;;;;;9.98;2.92;;;6.50;99.90;;;-144.05;79.41;125687.94;4972980;28;20085;-89
2022/05/29 03:11:45;;;;;;;7.57;3.50;;;6.50;99.90;;;-144.05;79.44;125687.94;4989213;28;20399;-86
2022/05/29 03:14:59;;;;;;;8.80;3.40;;;6.50;99.90;;;-144.05;79.52;125687.94;4974155;28;20045;-84
2022/05/29 03:17:49;;;;;;;10.35;3.70;;;6.50;99.90;;;-144.05;79.55;125687.94;4992918;28;20094;-86
2022/05/29 03:20:43;;;;;;;5.13;3.15;;;6.50;99.90;;;-144.05;80.10;125687.94;4981451;28;20053;-86
2022/05/29 03:23:29;;;;;;;11.25;3.53;;;6.50;99.90;;;-144.05;79.99;125687.94;4998106;28;20106;-83
2022/05/29 03:26:10;;;;;;;7.35;4.18;;;6.60;99.90;;;-144.05;80.35;125687.94;4993489;28;20035;-85
2022/05/29 03:28:52;;;;;;;9.27;3.45;;;6.60;99.90;;;-144.05;80.15;125687.94;4993268;28;20031;-86
2022/05/29 03:31:30;;;;;;;10.20;3.20;;;6.70;99.90;;;-144.05;80.25;125687.94;4978521;28;20033;-85
2022/05/29 03:33:57;;;;;;;8.02;3.28;;;6.80;99.90;;;-144.05;80.37;125687.94;4994595;28;20027;-86
2022/05/29 03:36:25;;;;;;;9.73;3.20;;;6.80;99.90;;;-144.05;80.40;125687.94;4977824;28;20035;-87
2022/05/29 03:38:51;;;;;;;8.43;3.90;;;6.90;99.90;;;-144.05;80.34;125687.94;4977706;28;20062;-87
2022/05/29 03:41:44;;;;;;;8.98;3.40;;;6.90;99.90;;;-144.05;80.35;125687.94;4994107;28;20038;-86
2022/05/29 03:44:13;;;;;;;6.60;3.53;;;6.80;99.90;;;-144.05;80.29;125687.94;4977817;28;20035;-85
2022/05/29 03:46:40;;;;;;;11.27;3.58;;;6.90;99.90;;;-144.05;80.20;125687.94;4978606;28;20424;-89
2022/05/29 03:49:14;;;;;;;10.13;3.58;;;6.90;99.90;;;-144.05;80.26;125687.94;4997388;28;20583;-86
2022/05/29 03:51:42;;;;;;;15.88;3.97;;;7.00;99.90;;;-144.05;80.46;125687.94;4977944;28;20035;-84
2022/05/29 03:54:10;;;;;;;10.05;5.35;;;6.90;99.90;;;-144.05;80.54;125687.94;4977968;28;20030;-87
2022/05/29 03:56:37;;;;;;;7.43;3.65;;;7.00;99.90;;;-144.05;80.77;125687.94;4980874;28;20070;-85
2022/05/29 03:59:05;;;;;;;9.55;4.25;;;7.10;99.90;;;-144.05;80.64;125687.94;4978183;28;20037;-85
2022/05/29 04:01:32;;;;;;;11.82;4.07;;;7.20;99.90;;;-144.05;80.41;125687.94;4976472;28;20034;-85
2022/05/29 04:04:00;;;;;;;10.27;5.05;;;7.40;99.90;;;-144.05;79.94;125687.94;4977369;28;20085;-87
2022/05/29 04:06:30;;;;;;;6.93;3.50;;;7.50;99.90;;;-144.05;79.65;125687.94;4976046;28;20030;-86
2022/05/29 04:14:30;;;;;;;10.63;3.78;;;7.90;99.90;;;-144.05;79.02;125687.94;4977672;28;20089;-85
2022/05/29 04:16:57;;;;;;;10.25;4.95;;;8.00;99.90;;;-144.05;78.90;125687.94;4976021;28;20085;-86
2022/05/29 04:19:23;;;;;;;8.68;4.30;;;8.00;99.90;;;-144.05;78.62;125687.94;4976046;28;20226;-85
2022/05/29 04:21:51;;;;;;;10.27;4.07;;;8.10;99.90;;;-144.05;78.38;125687.94;4975919;28;20034;-85
2022/05/29 04:24:20;;;;;;;11.10;4.75;;;8.30;99.90;;;-144.05;78.05;125687.94;4975602;28;20027;-84
2022/05/29 04:26:49;;;;;;;14.38;4.88;;;8.30;99.90;;;-144.05;77.76;125687.94;4974334;28;20045;-84
2022/05/29 04:29:18;;;;;;;14.07;4.45;;;8.40;99.90;;;-144.05;77.72;125687.94;4975654;28;20030;-85
2022/05/29 04:34:30;;;;;;;12.85;3.63;;;8.50;99.90;;;-144.05;77.08;125687.94;4977905;28;20154;-86
2022/05/29 04:36:56;;;;;;;14.15;4.75;;;8.60;99.90;;;-144.05;77.04;125687.94;4992659;28;20118;-85
2022/05/29 04:39:22;;;;;;;9.05;4.22;;;8.60;99.90;;;-144.05;76.92;125687.94;4975675;28;20035;-86
2022/05/29 04:41:48;;;;;;;10.63;3.67;;;8.60;99.90;;;-144.05;76.71;125687.94;4976102;28;20081;-86
2022/05/29 04:44:14;;;;;;;9.43;4.05;;;8.80;99.90;;;-144.05;76.23;125687.94;4975552;28;20035;-84
2022/05/29 04:46:40;;;;;;;11.25;3.72;;;8.80;99.90;;;-144.05;76.27;125687.94;4975641;28;20034;-85
2022/05/29 04:49:06;;;;;;;8.90;3.67;;;8.90;99.90;;;-144.05;75.73;125687.94;4975143;28;20030;-85
2022/05/29 04:51:33;;;;;;;7.93;3.50;;;8.90;99.90;;;-144.05;75.69;125687.94;4975438;28;20038;-85
2022/05/29 04:53:59;;;;;;;11.02;3.58;;;9.00;99.90;;;-144.05;75.79;125687.94;4975505;28;20039;-85
2022/05/29 04:56:25;;;;;;;7.18;3.40;;;9.00;99.90;;;-144.05;75.60;125687.94;4991714;28;20478;-87
2022/05/29 04:58:51;;;;;;;10.75;4.18;;;9.10;99.90;;;-144.05;74.97;125687.94;4991459;28;20041;-86
2022/05/29 05:01:18;;;;;;;8.07;3.42;;;9.10;99.90;;;-144.05;74.59;125687.94;4975305;28;20038;-84
2022/05/29 05:03:43;;;;;;;7.70;3.30;;;9.10;99.90;;;-144.05;74.71;125687.94;4975375;28;20402;-85
2022/05/29 05:06:10;;;;;;;7.43;3.75;;;9.20;99.90;;;-144.05;75.21;125687.94;4974623;28;20105;-85
2022/05/29 05:08:38;;;;;;;8.38;4.03;;;9.20;99.90;;;-144.05;75.22;125687.94;4991133;28;20027;-85
2022/05/29 05:11:06;;;;;;;11.20;4.25;;;9.10;99.90;;;-144.05;75.59;125687.94;4974757;28;20523;-86
2022/05/29 05:13:32;;;;;;;7.78;3.72;;;9.10;99.90;;;-144.05;75.73;125687.94;4974818;28;20041;-84
2022/05/29 05:16:05;;;;;;;12.35;3.60;;;9.00;99.90;;;-144.05;76.56;125687.94;4991540;28;20557;-85
2022/05/29 05:18:32;;;;;;;10.15;4.10;;;9.00;99.90;;;-144.05;77.24;125687.94;4991511;28;20505;-86
2022/05/29 05:20:58;;;;;;;9.85;4.10;;;9.00;99.90;;;-144.05;77.89;125687.94;4975896;28;20169;-86
2022/05/29 05:23:27;;;;;;;15.68;4.57;;;9.10;99.90;;;-144.05;78.31;125687.94;4977282;28;20066;-86
2022/05/29 05:26:00;;;;;;;8.70;4.43;;;9.10;99.90;;;-144.05;79.17;125687.94;4993028;28;20125;-92
2022/05/29 05:28:33;;;;;;;9.40;3.95;;;9.00;99.90;;;-144.05;79.28;125687.94;5012883;28;20022;-86
2022/05/29 05:31:33;;;;;;;;;;;;;;;;;;;;;
2022/05/29 05:34:42;;;;;;;9.38;4.25;;;9.10;99.90;;;-144.05;79.70;125687.94;4975847;28;20027;-85
2022/05/29 05:45:02;;;;;;;;;;;;;;;;;;;;;
2022/05/29 05:51:58;;;;;;;;;;;;;;;;;;;;;
2022/05/29 05:55:36;;;;;;;;;;;;;;;;;;;;;
2022/05/29 05:59:09;;;;;;;;;;;;;;;;;;;;;
2022/05/29 06:01:49;;;;;;;13.40;5.70;;;9.70;99.90;;;-144.05;79.39;125687.94;4977548;28;20025;-89
2022/05/29 06:08:30;;;;;;;9.30;5.32;;;9.80;99.90;;;-144.05;79.74;125687.94;4970396;28;20521;-85
2022/05/29 06:12:39;;;;;;;;;;;;;;;;;;;;;
2022/05/29 06:20:27;;;;;;;;;;;;;;;;;;;;;
2022/05/29 06:23:38;;;;;;;9.60;5.80;;;10.20;99.90;;;-144.05;78.45;125687.94;4974639;28;20038;-88
2022/05/29 06:26:41;;;;;;;11.48;6.57;;;10.40;99.90;;;-144.05;77.88;125687.94;4974457;28;20455;-88
2022/05/29 06:29:33;;;;;;;8.02;5.88;;;10.50;99.90;;;-144.05;76.86;125687.94;4975263;28;20086;-87
2022/05/29 06:32:36;;;;;;;10.50;5.65;;;10.60;99.90;;;-144.05;76.72;125687.94;4974883;28;20031;-88
2022/05/29 06:35:32;;;;;;;7.68;5.13;;;10.50;99.90;;;-144.05;76.89;125687.94;4974204;28;20027;-86
2022/05/29 06:38:20;;;;;;;8.35;5.60;;;10.70;99.90;;;-144.05;76.86;125687.94;4973754;28;20027;-90
2022/05/29 06:52:29;;;;;;;12.10;5.75;;;10.70;99.90;;;-144.05;75.52;125687.94;4984492;28;20305;-87
2022/05/29 06:55:25;;;;;;;9.07;6.18;;;10.70;99.90;;;-144.05;75.28;125687.94;5009646;28;20030;-88
2022/05/29 06:59:08;;;;;;;;;;;;;;;;;;;;;
2022/05/29 07:09:00;;;;;;;11.18;6.22;;;11.20;99.90;;;-144.05;72.66;125687.94;4982285;28;20034;-89
2022/05/29 07:12:31;;;;;;;10.77;6.97;;;11.50;99.90;;;-144.05;71.84;125687.94;4979806;28;20086;-88
2022/05/29 07:15:15;;;;;;;15.48;8.07;;;11.60;99.90;;;-144.05;70.95;125687.94;4989604;28;20149;-88
2022/05/29 07:17:48;;;;;;;14.40;7.68;;;11.80;99.90;;;-144.05;69.77;125687.94;4979653;28;20133;-88
2022/05/29 07:20:17;;;;;;;11.40;7.07;;;11.90;99.90;;;-144.05;69.83;125687.94;4990015;28;20169;-88
2022/05/29 07:22:49;;;;;;;12.02;7.30;;;11.90;99.90;;;-144.05;69.75;125687.94;4992871;28;20038;-89
2022/05/29 07:25:16;;;;;;;14.38;7.95;;;11.90;99.90;;;-144.05;69.64;125687.94;5009198;28;20594;-88
2022/05/29 07:27:42;;;;;;;8.05;6.68;;;12.20;99.90;;;-144.05;69.45;125687.94;4991376;28;20468;-87
2022/05/29 07:30:24;;;;;;;11.45;6.15;;;12.40;99.90;;;-144.05;69.23;125687.94;4991821;28;20027;-89
2022/05/29 07:32:52;;;;;;;9.88;6.35;;;12.40;99.90;;;-144.05;69.40;125687.94;4992797;28;20118;-84
2022/05/29 07:35:18;;;;;;;12.27;7.68;;;12.50;99.90;;;-144.05;68.60;125687.94;5015498;28;20026;-83
2022/05/29 07:37:48;;;;;;;12.93;7.75;;;12.30;99.90;;;-144.05;69.67;125687.94;5000376;28;20031;-89
2022/05/29 07:45:34;;;;;;;;;;;;;;;;;;;;;
2022/05/29 07:48:47;;;;;;;;;;;;;;;;;;;;;
2022/05/29 07:51:25;;;;;;;13.07;7.75;;;11.70;99.90;;;-144.05;72.15;125687.94;4993034;28;20066;-87
2022/05/29 07:54:20;;;;;;;13.90;7.95;;;11.60;99.90;;;-144.05;73.64;125687.94;4992602;28;20019;-86
2022/05/29 07:59:42;;;;;;;10.88;5.65;;;11.40;99.90;;;-144.05;73.49;125687.94;4987293;28;20069;-90
2022/05/29 08:02:14;;;;;;;9.98;5.40;;;11.30;99.90;;;-144.05;73.69;125687.94;4980102;28;20035;-91
2022/05/29 08:04:54;;;;;;;;;;;;;;;;;;;;;
2022/05/29 08:11:47;;;;;;;;;;;;;;;;;;;;;
2022/05/29 08:14:32;;;;;;;7.05;3.53;;;12.10;99.90;;;-144.05;69.95;125687.94;4979027;28;20122;-88
2022/05/29 08:17:00;;;;;;;9.68;3.00;;;12.60;99.90;;;-144.05;65.43;125687.94;4980078;28;20081;-86
2022/05/29 08:19:29;;;;;;;7.07;3.13;;;13.10;99.90;;;-144.05;64.69;125687.94;4993895;28;20118;-88
2022/05/29 08:22:30;;;;;;;;;;;;;;;;;;;;;
2022/05/29 08:30:54;;;;;;;;;;;;;;;;;;;;;
2022/05/29 08:34:08;;;;;;;;;;;;;;;;;;;;;
2022/05/29 08:36:50;;;;;;;;;;;;;;;;;;;;;
2022/05/29 08:39:42;;;;;;;;;;;;;;;;;;;;;
2022/05/29 08:42:17;;;;;;;3.90;1.35;;;14.50;99.90;;;-144.05;60.13;125687.94;4981652;28;20027;-86
2022/05/29 08:44:52;;;;;;;4.97;1.50;;;14.30;99.90;;;-144.05;60.73;125687.94;4979601;28;20041;-91
2022/05/29 08:47:29;;;;;;;3.83;1.48;;;14.20;99.90;;;-144.05;59.43;125687.94;4980643;28;20101;-85
2022/05/29 08:49:56;;;;;;;2.97;1.70;;;14.20;99.90;;;-144.05;56.74;125687.94;4976408;28;20213;-86
2022/05/29 08:53:01;;;;;;;4.93;1.55;;;14.90;99.90;;;-144.05;55.55;125687.94;4976113;28;20484;-85
2022/05/29 08:55:55;;;;;;;6.05;1.70;;;15.40;99.90;;;-144.05;54.37;125687.94;4975561;28;20027;-84
2022/05/29 08:59:22;;;;;;;8.85;2.08;;;16.20;99.90;;;-144.05;48.44;125687.94;4974939;28;20030;-86
2022/05/29 09:02:43;;;;;;;4.68;1.77;;;17.00;99.90;;;-144.05;49.16;125687.94;4940336;28;20518;-85
2022/05/29 09:05:40;;;;;;;6.88;1.80;;;16.60;99.90;;;-144.05;49.50;125687.94;4991742;28;20027;-87
2022/05/29 09:08:37;;;;;;;6.38;1.73;;;16.20;99.90;;;-144.05;50.32;125687.94;4977026;28;20062;-85
2022/05/29 09:11:20;;;;;;;6.47;1.52;;;16.30;99.90;;;-144.05;51.04;125687.94;4979073;28;20039;-84
2022/05/29 09:14:11;;;;;;;4.20;1.30;;;16.40;99.90;;;-144.05;50.42;125687.94;4990706;28;20467;-86
2022/05/29 09:16:58;;;;;;;4.18;1.30;;;16.10;99.90;;;-144.05;50.24;125687.94;4975222;28;20030;-86
2022/05/29 09:19:59;;;;;;;6.95;1.70;;;15.70;99.90;;;-144.05;52.18;125687.94;4978831;28;20030;-84
2022/05/29 09:22:44;;;;;;;7.57;1.58;;;15.40;99.90;;;-144.05;51.18;125687.94;4978455;28;20031;-83
2022/05/29 09:25:55;;;;;;;;;;;;;;;;;;;;;
2022/05/29 09:28:36;;;;;;;4.18;1.23;;;15.40;99.90;;;-144.05;51.94;125687.94;4979119;28;20127;-88
2022/05/29 09:31:22;;;;;;;6.63;1.60;;;15.50;99.90;;;-144.05;51.78;125687.94;4977816;28;20030;-88
2022/05/29 09:33:52;;;;;;;5.28;1.77;;;15.20;99.90;;;-144.05;51.47;125687.94;4976942;28;20039;-86
2022/05/29 09:36:52;;;;;;;5.05;2.00;;;14.90;99.90;;;-144.05;53.99;125687.94;4976219;28;20039;-86
2022/05/29 09:39:44;;;;;;;4.78;1.25;;;14.50;99.90;;;-144.05;57.15;125687.94;4995834;28;20026;-83
2022/05/29 09:42:39;;;;;;;2.72;0.80;;;13.90;99.90;;;-144.05;62.42;125687.94;4997687;28;20200;-83
2022/05/29 09:45:40;;;;;;;;;;;;;;;;;;;;;
2022/05/29 09:51:52;;;;;;;2.17;0.77;;;12.20;99.90;;;-144.05;66.34;125687.94;4980971;28;20041;-89
2022/05/29 09:54:50;;;;;;;;;;;;;;;;;;;;;
2022/05/29 09:57:44;;;;;;;;;;;;;;;;;;;;;
2022/05/29 10:01:06;;;;;;;1.70;0.80;;;13.10;99.90;;;-144.05;64.76;125687.94;4979268;28;20114;-85
2022/05/29 10:04:11;;;;;;;;;;;;;;;;;;;;;
2022/05/29 10:07:29;;;;;;;;;;;;;;;;;;;;;
2022/05/29 10:10:19;;;;;;;4.32;1.00;;;13.70;99.90;;;-144.05;61.84;125687.94;4980533;28;20565;-88
2022/05/29 10:12:58;;;;;;;2.63;1.17;;;14.10;99.90;;;-144.05;59.21;125687.94;4981288;28;20047;-88
2022/05/29 10:15:27;;;;;;;3.03;1.10;;;14.60;99.90;;;-144.05;55.28;125687.94;4981338;28;20027;-87
2022/05/29 10:18:05;;;;;;;6.03;1.73;;;14.90;99.90;;;-144.05;57.61;125687.94;4994306;28;20162;-88
2022/05/29 10:20:44;;;;;;;4.50;1.70;;;15.30;99.90;;;-144.05;57.03;125687.94;4978607;28;20041;-86
2022/05/29 10:25:05;;;;;;;;;;;;;;;;;;;;;
2022/05/29 10:27:03;;;;;;;6.95;1.67;;;15.60;99.90;;;-144.05;56.87;125687.94;4965381;28;20039;-88
2022/05/29 10:29:39;;;;;;;4.13;1.63;;;15.60;99.90;;;-144.05;56.59;125687.94;4977816;28;20038;-85
2022/05/29 10:32:31;;;;;;;;;;;;;;;;;;;;;
2022/05/29 10:35:45;;;;;;;5.45;1.38;;;15.30;99.90;;;-144.05;56.06;125687.94;4981493;28;20102;-88
2022/05/29 10:38:42;;;;;;;4.65;1.67;;;15.10;99.90;;;-144.05;56.16;125687.94;4976705;28;20038;-88
2022/05/29 10:41:32;;;;;;;8.52;1.73;;;15.50;99.90;;;-144.05;53.78;125687.94;4981835;28;20049;-87
2022/05/29 10:43:58;;;;;;;2.90;1.10;;;15.90;99.90;;;-144.05;50.28;125687.94;4975320;28;20023;-90
2022/05/29 10:47:08;;;;;;;3.40;1.33;;;17.00;99.90;;;-144.05;51.04;125687.94;4976966;28;20034;-86
2022/05/29 10:50:03;;;;;;;5.53;1.20;;;17.80;99.90;;;-144.05;45.81;125687.94;4971200;28;20098;-85
2022/05/29 10:53:16;;;;;;;3.65;0.95;;;18.50;99.90;;;-144.05;44.22;125687.94;4977813;28;20435;-90
2022/05/29 10:56:25;;;;;;;4.75;1.08;;;18.80;99.90;;;-144.05;46.95;125687.94;4978768;28;20031;-85
2022/05/29 10:59:54;;;;;;;4.07;1.27;;;19.00;99.90;;;-144.05;43.36;125687.94;4981410;28;20030;-88
2022/05/29 11:03:17;;;;;;;3.53;0.90;;;18.70;99.90;;;-144.05;43.34;125687.94;4996384;28;20038;-89
2022/05/29 11:06:44;;;;;;;4.40;1.33;;;19.10;99.90;;;-144.05;40.81;125687.94;4998732;28;20059;-86
2022/05/29 11:09:52;;;;;;;1.80;0.90;;;19.20;96.20;;;-144.05;42.62;125687.94;4989897;28;20150;-86
2022/05/29 11:12:55;;;;;;;4.80;1.52;;;18.80;99.90;;;-144.05;43.27;125687.94;4985139;28;20113;-87
2022/05/29 11:16:02;;;;;;;4.60;1.10;;;18.00;99.90;;;-144.05;46.05;125687.94;4983278;28;20158;-86
2022/05/29 11:19:26;;;;;;;2.70;1.13;;;17.10;99.90;;;-144.05;48.70;125687.94;4971646;28;20046;-89
2022/05/29 11:22:41;;;;;;;3.85;1.10;;;16.20;99.90;;;-144.05;52.38;125687.94;4980615;28;20139;-89
2022/05/29 11:25:56;;;;;;;1.88;1.08;;;15.10;99.90;;;-144.05;57.31;125687.94;4978432;28;20073;-86
2022/05/29 11:29:07;;;;;;;4.15;1.02;;;14.10;99.90;;;-144.05;62.09;125687.94;4994696;28;20506;-89
2022/05/29 11:32:04;;;;;;;2.08;0.90;;;13.60;99.90;;;-144.05;62.21;125687.94;4982459;28;20031;-87
2022/05/29 11:34:52;;;;;;;;;;;13.20;99.90;;;-144.05;64.54;125687.94;4997999;28;20041;-89
2022/05/29 11:38:09;;;;;;;2.47;1.02;;;13.00;99.90;;;-144.05;66.38;125687.94;4999620;28;20350;-89
2022/05/29 11:40:48;;;;;;;4.68;1.65;;;12.60;99.90;;;-144.05;68.62;125687.94;4996963;28;20134;-85
2022/05/29 11:44:18;;;;;;;4.45;1.65;;;12.30;99.90;;;-144.05;67.45;125687.94;4992792;28;20251;-88
2022/05/29 11:52:56;;;;;;;2.15;0.90;;;11.80;99.90;;;-144.05;68.59;125687.94;4980019;28;20108;-86
2022/05/29 11:55:29;;;;;;;4.88;1.67;;;11.80;99.90;;;-144.05;69.28;125687.94;4977699;28;20387;-85
2022/05/29 11:58:53;;;;;;;4.97;1.30;;;11.70;99.90;;;-144.05;69.93;125687.94;4977188;28;20090;-86
2022/05/29 12:01:50;;;;;;;5.38;1.48;;;11.90;99.90;;;-144.05;68.86;125687.94;4936699;29;20078;-88
2022/05/29 12:04:36;;;;;;;1.60;1.17;;;12.10;99.90;;;-144.05;68.06;125687.94;4974902;28;20027;-87
2022/05/29 12:07:22;;;;;;;2.63;0.90;;;12.40;99.90;;;-144.05;67.02;125687.94;4976062;28;20037;-85
2022/05/29 12:10:04;;;;;;;5.55;1.20;;;12.80;99.90;;;-144.05;65.45;125687.94;4974725;28;20097;-87
2022/05/29 12:12:43;;;;;;;6.93;1.67;;;13.20;99.90;;;-144.05;64.38;125687.94;4958886;28;20110;-86
2022/05/29 12:15:21;;;;;;;4.22;1.05;;;13.40;99.90;;;-144.05;63.54;125687.94;4955254;28;20038;-88
2022/05/29 12:18:13;;;;;;;2.90;0.77;;;13.50;99.90;;;-144.05;63.20;125687.94;4955152;28;20027;-88
2022/05/29 12:21:03;;;;;;;3.30;0.95;;;13.80;99.90;;;-144.05;60.86;125687.94;4956823;28;20399;-89
2022/05/29 12:23:45;;;;;;;4.53;1.40;;;14.30;99.90;;;-144.05;59.55;125687.94;4956974;28;20391;-88
2022/05/29 12:26:27;;;;;;;2.53;1.30;;;14.50;99.90;;;-144.05;59.45;125687.94;4957227;28;20118;-86
2022/05/29 12:29:04;;;;;;;4.53;1.20;;;14.60;99.90;;;-144.05;58.04;125687.94;4957207;28;20030;-88
2022/05/29 12:31:47;;;;;;;2.47;0.80;;;14.60;99.90;;;-144.05;57.59;125687.94;4957149;28;20122;-84
2022/05/29 12:34:45;;;;;;;3.70;1.13;;;14.80;99.90;;;-144.05;57.21;125687.94;4957646;28;20035;-85
2022/05/29 21:23:30;;;;;;;8.13;1.45;;;10.60;99.90;;;-144.05;61.20;125687.94;4980928;28;20097;-85
2022/05/29 21:26:04;;;;;;;9.60;1.33;;;10.60;99.90;;;-144.05;61.43;125687.94;4980600;28;20531;-86
2022/05/29 21:28:35;;;;;;;5.82;1.60;;;10.60;99.90;;;-144.05;61.35;125687.94;4979584;28;20158;-85
2022/05/29 21:31:04;;;;;;;3.65;1.10;;;10.60;99.90;;;-144.05;61.91;125687.94;4997086;28;20046;-86
2022/05/29 21:33:36;;;;;;;8.98;1.70;;;10.60;99.90;;;-144.05;62.01;125687.94;4987338;28;20054;-85
2022/05/29 21:36:03;;;;;;;4.18;1.20;;;10.50;99.90;;;-144.05;62.00;125687.94;4985411;28;20014;-87
2022/05/29 21:38:31;;;;;;;6.63;1.42;;;10.50;99.90;;;-144.05;62.13;125687.94;5003683;28;20105;-86
2022/05/29 21:41:02;;;;;;;5.22;1.35;;;10.50;99.90;;;-144.05;62.79;125687.94;4981586;28;20113;-85
2022/05/29 21:43:30;;;;;;;7.85;1.40;;;10.50;99.90;;;-144.05;62.63;125687.94;4983523;28;20055;-85
2022/05/29 21:46:14;;;;;;;8.70;1.25;;;10.40;99.90;;;-144.05;63.18;125687.94;4982130;28;20074;-87
2022/05/29 21:48:44;;;;;;;5.95;1.70;;;10.40;99.90;;;-144.05;62.70;125687.94;4998139;28;20065;-83
2022/05/29 21:51:20;;;;;;;5.43;1.45;;;10.40;99.90;;;-144.05;62.97;125687.94;4995150;28;20103;-87
2022/05/29 21:53:47;;;;;;;;;;;10.40;99.90;;;-144.05;63.75;125687.94;4996339;28;20034;-84
2022/05/29 21:56:20;;;;;;;2.85;1.10;;;10.40;99.90;;;-144.05;63.57;125687.94;4978531;28;20358;-86
2022/05/29 21:58:49;;;;;;;8.15;1.55;;;10.40;99.90;;;-144.05;63.16;125687.94;4994418;28;20034;-85
2022/05/29 22:01:20;;;;;;;3.58;1.05;;;10.40;99.90;;;-144.05;63.77;125687.94;4996972;28;20041;-85